Time;durP1;ratioP1;P1;durP2;ratioP2;P2;SDS_P1;SDS_P2;PMS_P1;PMS_P2;Temp;Humidity;BMP_temperature;BMP_pressure;BME280_temperature;BME280_humidity;BME280_pressure;Samples;Min_cycle;Max_cycle;Signal;HPM_P1;HPM_P2
2022/05/11 00:00:38;;;;;;;5.50;3.78;;;;;;;;;;4956496;28;20055;-61
2022/05/11 00:03:05;;;;;;;4.75;3.65;;;;;;;;;;4962452;28;20484;-61
2022/05/11 00:05:32;;;;;;;4.90;3.83;;;;;;;;;;4961121;28;20102;-61
2022/05/11 00:07:58;;;;;;;7.55;4.32;;;;;;;;;;4962061;28;20459;-61
2022/05/11 00:10:24;;;;;;;7.07;3.95;;;;;;;;;;4959192;28;20027;-61
2022/05/11 00:12:50;;;;;;;7.65;3.90;;;;;;;;;;4962687;28;20058;-61
2022/05/11 00:15:20;;;;;;;5.20;4.03;;;;;;;;;;4954285;28;20431;-63
2022/05/11 00:17:46;;;;;;;7.63;3.95;;;;;;;;;;4964429;28;20044;-63
2022/05/11 00:20:13;;;;;;;4.97;4.03;;;;;;;;;;4963759;28;20451;-63
2022/05/11 00:22:39;;;;;;;5.85;4.05;;;;;;;;;;4958352;28;20110;-63
2022/05/11 00:25:08;;;;;;;6.28;3.72;;;;;;;;;;4953894;28;20126;-63
2022/05/11 00:27:34;;;;;;;5.38;3.75;;;;;;;;;;4958497;28;20198;-63
2022/05/11 00:29:59;;;;;;;5.40;3.88;;;;;;;;;;4961806;28;20159;-63
2022/05/11 00:32:26;;;;;;;4.70;4.25;;;;;;;;;;4956498;28;20477;-61
2022/05/11 00:34:52;;;;;;;4.55;4.18;;;;;;;;;;4959287;28;20038;-63
2022/05/11 00:37:18;;;;;;;4.40;3.78;;;;;;;;;;4956385;28;20037;-63
2022/05/11 00:39:45;;;;;;;4.72;3.53;;;;;;;;;;4956618;28;20476;-61
2022/05/11 00:42:10;;;;;;;4.80;3.83;;;;;;;;;;4960014;28;20054;-61
2022/05/11 00:44:36;;;;;;;4.30;3.90;;;;;;;;;;4957117;28;20365;-61
2022/05/11 00:47:24;;;;;;;7.00;5.03;;;;;;;;;;4961810;28;20034;-61
2022/05/11 00:49:53;;;;;;;5.45;3.75;;;;;;;;;;4963116;28;20031;-61
2022/05/11 00:52:26;;;;;;;4.70;4.18;;;;;;;;;;4958278;28;20027;-63
2022/05/11 00:54:59;;;;;;;8.38;4.35;;;;;;;;;;4974753;28;20225;-63
2022/05/11 00:57:36;;;;;;;5.22;3.97;;;;;;;;;;4957376;28;20045;-63
2022/05/11 01:00:06;;;;;;;6.43;4.32;;;;;;;;;;4953106;28;20481;-62
2022/05/11 01:02:33;;;;;;;4.88;3.88;;;;;;;;;;4960926;28;20093;-62
2022/05/11 01:05:04;;;;;;;6.13;3.65;;;;;;;;;;4958489;28;20809;-61
2022/05/11 01:07:31;;;;;;;4.85;3.83;;;;;;;;;;4958712;28;20038;-63
2022/05/11 01:09:57;;;;;;;4.28;3.80;;;;;;;;;;4962426;28;20147;-61
2022/05/11 01:12:29;;;;;;;4.40;4.00;;;;;;;;;;4959093;28;20401;-61
2022/05/11 01:14:57;;;;;;;4.55;3.80;;;;;;;;;;4958528;28;20030;-63
2022/05/11 01:17:24;;;;;;;4.63;3.78;;;;;;;;;;4958047;28;20055;-63
2022/05/11 01:19:50;;;;;;;6.85;3.83;;;;;;;;;;4960958;28;20031;-61
2022/05/11 01:22:31;;;;;;;6.78;4.03;;;;;;;;;;4958059;28;20041;-62
2022/05/11 01:24:58;;;;;;;4.00;3.63;;;;;;;;;;4959315;28;20487;-63
2022/05/11 01:27:31;;;;;;;7.55;4.00;;;;;;;;;;4955036;28;20486;-63
2022/05/11 01:30:04;;;;;;;4.93;3.95;;;;;;;;;;4959309;28;20578;-63
2022/05/11 01:32:31;;;;;;;5.65;3.95;;;;;;;;;;4963334;28;20443;-62
2022/05/11 01:35:07;;;;;;;4.45;3.92;;;;;;;;;;4959620;28;20045;-63
2022/05/11 01:37:37;;;;;;;5.85;3.60;;;;;;;;;;4959445;28;20579;-63
2022/05/11 01:40:04;;;;;;;6.32;4.25;;;;;;;;;;4959103;28;20109;-63
2022/05/11 01:42:30;;;;;;;4.18;3.75;;;;;;;;;;4959950;28;20042;-62
2022/05/11 01:44:56;;;;;;;5.35;4.18;;;;;;;;;;4959394;28;20035;-62
2022/05/11 01:47:21;;;;;;;8.60;4.32;;;;;;;;;;4960242;28;20031;-63
2022/05/11 01:49:47;;;;;;;6.75;4.32;;;;;;;;;;4957916;28;20058;-63
2022/05/11 01:52:13;;;;;;;5.18;3.90;;;;;;;;;;4956540;28;20038;-63
2022/05/11 01:54:39;;;;;;;5.13;3.65;;;;;;;;;;4956994;28;20031;-63
2022/05/11 01:57:04;;;;;;;5.13;3.70;;;;;;;;;;4954825;28;20031;-63
2022/05/11 01:59:30;;;;;;;6.47;3.80;;;;;;;;;;4954727;28;20027;-63
2022/05/11 02:01:56;;;;;;;9.05;4.40;;;;;;;;;;4957031;28;20031;-63
2022/05/11 02:09:58;;;;;;;4.20;3.80;;;;;;;;;;4941419;28;20070;-62
2022/05/11 02:12:23;;;;;;;7.55;3.90;;;;;;;;;;4950081;28;20589;-63
2022/05/11 02:14:49;;;;;;;4.53;3.58;;;;;;;;;;4954725;28;20035;-63
2022/05/11 02:17:15;;;;;;;4.32;3.88;;;;;;;;;;4953068;28;20443;-62
2022/05/11 02:19:40;;;;;;;4.22;3.42;;;;;;;;;;4949422;28;20054;-63
2022/05/11 02:22:06;;;;;;;7.70;3.78;;;;;;;;;;4947997;29;20046;-62
2022/05/11 02:24:32;;;;;;;6.43;4.03;;;;;;;;;;4952178;28;20043;-62
2022/05/11 02:27:03;;;;;;;4.90;3.40;;;;;;;;;;4954574;28;20572;-62
2022/05/11 02:29:29;;;;;;;3.90;3.45;;;;;;;;;;4953693;28;20151;-63
2022/05/11 02:31:55;;;;;;;6.15;3.58;;;;;;;;;;4950091;28;20114;-62
2022/05/11 02:37:05;;;;;;;7.25;3.58;;;;;;;;;;4951110;28;20051;-62
2022/05/11 02:39:30;;;;;;;4.75;3.00;;;;;;;;;;4950061;28;20031;-63
2022/05/11 02:41:56;;;;;;;4.45;3.05;;;;;;;;;;4957244;28;20507;-62
2022/05/11 02:44:22;;;;;;;4.30;3.33;;;;;;;;;;4953260;28;20648;-62
2022/05/11 02:46:47;;;;;;;4.57;3.03;;;;;;;;;;4958635;28;20039;-62
2022/05/11 02:49:13;;;;;;;3.67;3.03;;;;;;;;;;4959563;28;20094;-62
2022/05/11 02:51:39;;;;;;;3.58;3.13;;;;;;;;;;4969063;28;20093;-63
2022/05/11 02:54:04;;;;;;;3.65;3.17;;;;;;;;;;4965169;28;20475;-62
2022/05/11 02:56:30;;;;;;;4.68;3.15;;;;;;;;;;4960642;28;20066;-61
2022/05/11 02:58:56;;;;;;;3.60;3.30;;;;;;;;;;4959877;28;20035;-62
2022/05/11 03:01:21;;;;;;;3.25;2.95;;;;;;;;;;4960015;28;20043;-62
2022/05/11 03:03:48;;;;;;;3.05;2.75;;;;;;;;;;4955866;28;20492;-63
2022/05/11 03:06:13;;;;;;;3.00;2.80;;;;;;;;;;4961007;28;20082;-62
2022/05/11 03:08:39;;;;;;;4.85;3.28;;;;;;;;;;4964638;28;20388;-62
2022/05/11 03:11:05;;;;;;;3.20;2.83;;;;;;;;;;4958451;28;20042;-61
2022/05/11 03:13:32;;;;;;;4.68;3.20;;;;;;;;;;4965216;28;20419;-62
2022/05/11 03:15:57;;;;;;;6.05;2.90;;;;;;;;;;4968747;28;20054;-62
2022/05/11 03:18:24;;;;;;;4.35;3.08;;;;;;;;;;4958748;28;20105;-62
2022/05/11 03:20:49;;;;;;;3.17;2.85;;;;;;;;;;4965504;28;20093;-63
2022/05/11 03:23:15;;;;;;;10.25;3.40;;;;;;;;;;4957751;28;20539;-62
2022/05/11 03:25:41;;;;;;;3.75;3.33;;;;;;;;;;4957757;28;20165;-62
2022/05/11 03:28:07;;;;;;;4.10;3.35;;;;;;;;;;4961956;28;20495;-62
2022/05/11 03:30:32;;;;;;;5.53;3.50;;;;;;;;;;4965415;28;20035;-62
2022/05/11 03:35:43;;;;;;;13.10;3.05;;;;;;;;;;4961619;28;20034;-63
2022/05/11 03:38:09;;;;;;;3.95;3.38;;;;;;;;;;4958653;28;20527;-62
2022/05/11 03:40:35;;;;;;;4.85;3.30;;;;;;;;;;4960833;28;20035;-62
2022/05/11 03:43:03;;;;;;;3.60;3.20;;;;;;;;;;4956364;28;20046;-62
2022/05/11 03:45:29;;;;;;;5.30;3.28;;;;;;;;;;4961540;28;20081;-62
2022/05/11 03:47:55;;;;;;;6.18;3.58;;;;;;;;;;4960269;28;20443;-62
2022/05/11 03:50:22;;;;;;;3.97;3.28;;;;;;;;;;4967097;28;20034;-63
2022/05/11 03:52:50;;;;;;;11.10;3.50;;;;;;;;;;4961143;28;20023;-62
2022/05/11 03:55:15;;;;;;;3.42;3.15;;;;;;;;;;4956623;28;20448;-62
2022/05/11 03:57:41;;;;;;;3.63;3.30;;;;;;;;;;4961525;28;20038;-62
2022/05/11 04:00:14;;;;;;;3.85;3.55;;;;;;;;;;4961128;28;20042;-62
2022/05/11 04:02:41;;;;;;;5.20;3.28;;;;;;;;;;4960844;28;20515;-63
2022/05/11 04:05:08;;;;;;;9.38;3.80;;;;;;;;;;4961786;28;20039;-62
2022/05/11 04:07:33;;;;;;;5.35;3.72;;;;;;;;;;4958151;28;20062;-62
2022/05/11 04:09:59;;;;;;;3.83;3.53;;;;;;;;;;4955904;28;20668;-62
2022/05/11 04:12:27;;;;;;;4.22;3.47;;;;;;;;;;4968179;28;20035;-62
2022/05/11 04:14:53;;;;;;;5.28;3.72;;;;;;;;;;4958182;28;20404;-62
2022/05/11 04:17:18;;;;;;;3.75;3.45;;;;;;;;;;4959031;28;20047;-62
2022/05/11 04:19:44;;;;;;;9.15;3.70;;;;;;;;;;4962810;28;20038;-62
2022/05/11 04:22:10;;;;;;;9.25;3.95;;;;;;;;;;4955321;28;20035;-62
2022/05/11 04:24:36;;;;;;;5.78;3.90;;;;;;;;;;4958560;28;20023;-62
2022/05/11 04:27:01;;;;;;;6.00;3.63;;;;;;;;;;4965535;28;20041;-62
2022/05/11 04:29:27;;;;;;;4.68;3.67;;;;;;;;;;4959085;28;20042;-62
2022/05/11 04:31:55;;;;;;;4.70;3.63;;;;;;;;;;4954982;28;20019;-62
2022/05/11 04:34:20;;;;;;;4.43;3.83;;;;;;;;;;4956881;28;20117;-62
2022/05/11 04:36:47;;;;;;;6.45;3.60;;;;;;;;;;4963951;28;20039;-62
2022/05/11 04:39:12;;;;;;;8.23;3.75;;;;;;;;;;4962855;28;20066;-62
2022/05/11 04:41:38;;;;;;;9.25;3.70;;;;;;;;;;4956674;28;20432;-63
2022/05/11 04:44:04;;;;;;;3.85;3.40;;;;;;;;;;4959278;28;20035;-62
2022/05/11 04:46:33;;;;;;;7.57;4.00;;;;;;;;;;4960170;28;20050;-62
2022/05/11 04:51:48;;;;;;;7.03;3.55;;;;;;;;;;4963526;28;20030;-62
2022/05/11 04:54:15;;;;;;;3.92;3.63;;;;;;;;;;4957011;28;20078;-62
2022/05/11 04:56:41;;;;;;;3.53;3.22;;;;;;;;;;4958384;28;20046;-62
2022/05/11 04:59:08;;;;;;;5.28;3.70;;;;;;;;;;4960044;28;20736;-61
2022/05/11 05:01:35;;;;;;;5.00;3.47;;;;;;;;;;4961776;28;20487;-62
2022/05/11 05:04:01;;;;;;;4.25;3.78;;;;;;;;;;4961485;28;20027;-62
2022/05/11 05:06:32;;;;;;;6.32;3.72;;;;;;;;;;4958669;28;20027;-61
2022/05/11 05:08:58;;;;;;;4.88;3.13;;;;;;;;;;4963995;28;20027;-62
2022/05/11 05:11:23;;;;;;;7.82;3.50;;;;;;;;;;4963565;28;20019;-61
2022/05/11 05:13:50;;;;;;;6.35;3.40;;;;;;;;;;4957878;28;20047;-61
2022/05/11 05:16:16;;;;;;;3.88;3.13;;;;;;;;;;4961142;28;20050;-61
2022/05/11 05:18:41;;;;;;;4.07;3.08;;;;;;;;;;4956920;28;20027;-61
2022/05/11 05:21:07;;;;;;;3.83;3.38;;;;;;;;;;4960192;28;20038;-62
2022/05/11 05:23:34;;;;;;;5.00;3.05;;;;;;;;;;4968074;28;20110;-62
2022/05/11 05:26:01;;;;;;;4.10;3.00;;;;;;;;;;4965299;28;20042;-61
2022/05/11 05:31:17;;;;;;;4.97;3.40;;;;;;;;;;4954642;28;20031;-61
2022/05/11 05:33:43;;;;;;;8.30;3.03;;;;;;;;;;4955834;28;20027;-61
2022/05/11 05:36:10;;;;;;;3.47;3.15;;;;;;;;;;4956081;28;20491;-61
2022/05/11 05:38:38;;;;;;;9.00;3.58;;;;;;;;;;4967540;28;20031;-61
2022/05/11 05:41:06;;;;;;;7.53;3.03;;;;;;;;;;4957097;28;20043;-61
2022/05/11 05:43:32;;;;;;;5.80;2.75;;;;;;;;;;4958769;28;20121;-61
2022/05/11 05:45:57;;;;;;;5.68;3.15;;;;;;;;;;4957756;28;20118;-61
2022/05/11 05:48:23;;;;;;;4.63;3.53;;;;;;;;;;4963985;28;20080;-62
2022/05/11 05:50:49;;;;;;;4.75;3.33;;;;;;;;;;4955455;28;20034;-61
2022/05/11 05:53:19;;;;;;;3.35;3.05;;;;;;;;;;4959449;28;20035;-61
2022/05/11 05:55:49;;;;;;;6.20;2.97;;;;;;;;;;4964144;28;20019;-62
2022/05/11 05:58:16;;;;;;;8.63;3.35;;;;;;;;;;4959732;28;20526;-62
2022/05/11 06:00:42;;;;;;;3.30;3.00;;;;;;;;;;4956291;28;20042;-61
2022/05/11 06:03:09;;;;;;;5.80;3.15;;;;;;;;;;4955117;28;20043;-61
2022/05/11 06:05:35;;;;;;;5.45;3.15;;;;;;;;;;4959194;28;20125;-61
2022/05/11 06:08:00;;;;;;;4.00;2.80;;;;;;;;;;4957852;28;20122;-61
2022/05/11 06:10:26;;;;;;;6.25;3.00;;;;;;;;;;4961934;28;20415;-61
2022/05/11 06:12:52;;;;;;;9.60;2.63;;;;;;;;;;4956474;28;20129;-62
2022/05/11 06:15:18;;;;;;;6.43;3.13;;;;;;;;;;4959622;28;20086;-61
2022/05/11 06:17:44;;;;;;;4.75;2.67;;;;;;;;;;4957819;28;20036;-61
2022/05/11 06:20:10;;;;;;;7.82;2.60;;;;;;;;;;4957917;28;20034;-61
2022/05/11 06:22:37;;;;;;;3.28;2.50;;;;;;;;;;4959672;28;20030;-61
2022/05/11 06:25:03;;;;;;;3.78;2.83;;;;;;;;;;4955729;28;20392;-62
2022/05/11 06:27:29;;;;;;;5.93;3.15;;;;;;;;;;4962183;28;20042;-61
2022/05/11 06:29:58;;;;;;;7.50;2.72;;;;;;;;;;4956070;28;20032;-61
2022/05/11 06:32:24;;;;;;;8.27;2.35;;;;;;;;;;4958182;28;20031;-61
2022/05/11 06:34:52;;;;;;;9.35;2.40;;;;;;;;;;4961298;28;20031;-62
2022/05/11 06:37:19;;;;;;;3.13;2.45;;;;;;;;;;4956595;28;20038;-62
2022/05/11 06:39:44;;;;;;;7.18;2.70;;;;;;;;;;4953081;28;20387;-62
2022/05/11 06:42:12;;;;;;;8.27;2.50;;;;;;;;;;4957528;28;20031;-61
2022/05/11 06:44:39;;;;;;;5.88;2.88;;;;;;;;;;4956652;28;20031;-62
2022/05/11 06:47:05;;;;;;;5.00;2.42;;;;;;;;;;4957219;28;20051;-62
2022/05/11 06:49:32;;;;;;;5.75;2.90;;;;;;;;;;4955285;28;20038;-62
2022/05/11 06:51:58;;;;;;;6.10;2.50;;;;;;;;;;4957342;28;20028;-62
2022/05/11 06:59:55;;;;;;;4.90;2.55;;;;;;;;;;4959470;28;20035;-62
2022/05/11 07:02:21;;;;;;;7.15;3.20;;;;;;;;;;4961586;28;20034;-62
2022/05/11 07:04:48;;;;;;;5.05;2.60;;;;;;;;;;4960764;28;20118;-61
2022/05/11 07:07:15;;;;;;;4.03;2.40;;;;;;;;;;4959077;28;20023;-62
2022/05/11 07:09:42;;;;;;;5.65;2.58;;;;;;;;;;4960718;28;20082;-62
2022/05/11 07:12:17;;;;;;;5.85;2.63;;;;;;;;;;4960404;28;20750;-62
2022/05/11 07:14:49;;;;;;;6.15;2.45;;;;;;;;;;4962083;28;20027;-62
2022/05/11 07:17:38;;;;;;;7.90;3.20;;;;;;;;;;4960189;28;20047;-62
2022/05/11 07:20:18;;;;;;;8.63;2.30;;;;;;;;;;4957573;28;20066;-62
2022/05/11 07:22:44;;;;;;;3.28;2.15;;;;;;;;;;4961354;28;20031;-62
2022/05/11 07:25:12;;;;;;;6.32;2.38;;;;;;;;;;4961938;28;20035;-62
2022/05/11 07:27:39;;;;;;;5.82;2.50;;;;;;;;;;4967041;28;20030;-62
2022/05/11 07:30:07;;;;;;;10.45;2.25;;;;;;;;;;4956312;28;20082;-62
2022/05/11 07:32:33;;;;;;;4.68;2.83;;;;;;;;;;4961556;28;20035;-62
2022/05/11 07:34:58;;;;;;;6.50;2.42;;;;;;;;;;4960005;28;20019;-62
2022/05/11 07:37:24;;;;;;;5.38;2.45;;;;;;;;;;4958099;28;20090;-62
2022/05/11 07:39:51;;;;;;;5.32;2.30;;;;;;;;;;4958449;28;20496;-62
2022/05/11 07:42:17;;;;;;;10.82;2.15;;;;;;;;;;4957723;28;20063;-62
2022/05/11 07:44:43;;;;;;;8.07;2.40;;;;;;;;;;4958283;28;20070;-63
2022/05/11 07:47:10;;;;;;;6.43;2.10;;;;;;;;;;4962250;28;20055;-62
2022/05/11 07:49:38;;;;;;;10.57;2.20;;;;;;;;;;4961679;28;20039;-63
2022/05/11 07:52:05;;;;;;;4.00;2.00;;;;;;;;;;4958354;28;20031;-62
2022/05/11 07:54:31;;;;;;;6.10;2.25;;;;;;;;;;4957416;28;20081;-61
2022/05/11 07:59:57;;;;;;;6.80;2.10;;;;;;;;;;4958567;28;20023;-62
2022/05/11 08:02:29;;;;;;;3.38;1.70;;;;;;;;;;4957628;28;20031;-62
2022/05/11 08:04:59;;;;;;;5.40;2.22;;;;;;;;;;4961421;28;20039;-62
2022/05/11 08:07:28;;;;;;;8.90;2.13;;;;;;;;;;4961871;28;20031;-62
2022/05/11 08:09:59;;;;;;;9.75;2.40;;;;;;;;;;4960789;28;20031;-63
2022/05/11 08:12:25;;;;;;;5.15;2.08;;;;;;;;;;4958725;28;20031;-63
2022/05/11 08:14:50;;;;;;;7.68;2.28;;;;;;;;;;4962534;28;20023;-63
2022/05/11 08:17:23;;;;;;;4.00;2.08;;;;;;;;;;4961601;28;20429;-62
2022/05/11 08:19:49;;;;;;;4.32;2.35;;;;;;;;;;4966566;28;20031;-62
2022/05/11 08:22:15;;;;;;;5.75;2.00;;;;;;;;;;4956449;28;20432;-63
2022/05/11 08:24:40;;;;;;;7.22;2.70;;;;;;;;;;4955208;28;20054;-63
2022/05/11 08:27:09;;;;;;;9.40;2.42;;;;;;;;;;4966992;28;20034;-62
2022/05/11 08:35:03;;;;;;;6.97;2.47;;;;;;;;;;4962023;28;20540;-63
2022/05/11 08:37:30;;;;;;;10.30;2.67;;;;;;;;;;4959954;28;20046;-63
2022/05/11 08:39:56;;;;;;;11.98;2.58;;;;;;;;;;4960236;28;20058;-63
2022/05/11 08:42:25;;;;;;;6.97;2.40;;;;;;;;;;4959700;28;20488;-63
2022/05/11 08:44:51;;;;;;;9.52;2.80;;;;;;;;;;4968399;28;20486;-62
2022/05/11 08:47:32;;;;;;;10.13;2.58;;;;;;;;;;4966439;28;20035;-63
2022/05/11 08:50:17;;;;;;;8.85;2.33;;;;;;;;;;4960433;28;20601;-63
2022/05/11 08:52:55;;;;;;;9.57;2.58;;;;;;;;;;4957403;28;20042;-63
2022/05/11 08:55:39;;;;;;;10.48;2.60;;;;;;;;;;4958545;28;20035;-63
2022/05/11 08:58:19;;;;;;;11.20;3.05;;;;;;;;;;4955571;28;20031;-63
2022/05/11 09:00:45;;;;;;;24.85;4.05;;;;;;;;;;4953900;28;20031;-63
2022/05/11 09:03:33;;;;;;;8.95;2.95;;;;;;;;;;4958829;28;20439;-64
2022/05/11 09:06:03;;;;;;;11.38;2.95;;;;;;;;;;4966232;28;20021;-62
2022/05/11 09:08:32;;;;;;;7.25;2.03;;;;;;;;;;4959769;28;20183;-63
2022/05/11 09:10:58;;;;;;;8.05;2.67;;;;;;;;;;4952820;28;20031;-63
2022/05/11 09:13:27;;;;;;;7.53;2.47;;;;;;;;;;4954931;28;20050;-63
2022/05/11 09:15:55;;;;;;;8.82;2.13;;;;;;;;;;4959788;28;20420;-61
2022/05/11 09:18:30;;;;;;;11.85;2.67;;;;;;;;;;4961204;28;20031;-63
2022/05/11 09:20:59;;;;;;;15.55;3.60;;;;;;;;;;4957342;28;20031;-63
2022/05/11 09:23:41;;;;;;;12.82;2.75;;;;;;;;;;4953326;28;20030;-63
2022/05/11 09:26:11;;;;;;;14.75;3.45;;;;;;;;;;4956941;28;20447;-63
2022/05/11 09:28:39;;;;;;;11.48;2.63;;;;;;;;;;4960235;28;20483;-63
2022/05/11 09:31:13;;;;;;;13.18;2.45;;;;;;;;;;4963259;28;20046;-62
2022/05/11 09:33:59;;;;;;;9.32;3.00;;;;;;;;;;4954682;28;20027;-63
2022/05/11 09:36:37;;;;;;;8.93;2.72;;;;;;;;;;4960364;28;20712;-63
2022/05/11 09:39:13;;;;;;;14.65;2.92;;;;;;;;;;4956884;28;20487;-63
2022/05/11 09:41:41;;;;;;;10.27;2.28;;;;;;;;;;4968115;28;20030;-64
2022/05/11 09:44:18;;;;;;;6.60;2.08;;;;;;;;;;4964310;28;20035;-63
2022/05/11 09:46:44;;;;;;;15.80;2.83;;;;;;;;;;4958278;28;21562;-62
2022/05/11 09:49:15;;;;;;;14.45;2.63;;;;;;;;;;4955463;28;20480;-63
2022/05/11 09:51:44;;;;;;;6.97;3.00;;;;;;;;;;4955618;28;20114;-63
2022/05/11 09:54:16;;;;;;;6.68;2.72;;;;;;;;;;4954597;28;20114;-63
2022/05/11 09:57:03;;;;;;;6.13;2.13;;;;;;;;;;4951787;28;20035;-61
2022/05/11 09:59:40;;;;;;;7.30;2.60;;;;;;;;;;4965878;28;20039;-61
2022/05/11 10:02:25;;;;;;;9.93;3.20;;;;;;;;;;4960143;28;20034;-62
2022/05/11 10:05:01;;;;;;;8.45;2.33;;;;;;;;;;4961613;28;20031;-62
2022/05/11 10:07:32;;;;;;;11.50;2.72;;;;;;;;;;4955051;28;20037;-64
2022/05/11 10:10:03;;;;;;;8.23;2.25;;;;;;;;;;4953842;28;20039;-63
2022/05/11 10:12:35;;;;;;;11.45;2.22;;;;;;;;;;4962084;28;20030;-64
2022/05/11 10:24:17;;;;;;;9.45;2.28;;;;;;;;;;4960486;28;20035;-63
2022/05/11 10:26:57;;;;;;;12.23;3.08;;;;;;;;;;4942671;28;20158;-62
2022/05/11 10:29:44;;;;;;;12.50;2.65;;;;;;;;;;4957076;28;20031;-64
2022/05/11 10:32:16;;;;;;;10.52;2.35;;;;;;;;;;4956150;28;20035;-63
2022/05/11 10:34:56;;;;;;;5.82;2.20;;;;;;;;;;4956227;28;20043;-63
2022/05/11 10:37:40;;;;;;;9.13;2.47;;;;;;;;;;4964455;28;20062;-63
2022/05/11 10:40:11;;;;;;;11.00;2.60;;;;;;;;;;4960131;28;20039;-63
2022/05/11 10:42:46;;;;;;;14.40;2.85;;;;;;;;;;4957295;28;20031;-63
2022/05/11 10:45:21;;;;;;;8.52;2.97;;;;;;;;;;4960594;28;20042;-62
2022/05/11 10:48:09;;;;;;;13.35;2.63;;;;;;;;;;4960402;28;20567;-63
2022/05/11 10:50:59;;;;;;;9.43;3.05;;;;;;;;;;4958747;28;20054;-63
2022/05/11 10:53:34;;;;;;;8.05;2.80;;;;;;;;;;4958893;28;20047;-63
2022/05/11 10:56:12;;;;;;;14.82;2.42;;;;;;;;;;4962559;28;20087;-64
2022/05/11 10:59:15;;;;;;;4.60;2.13;;;;;;;;;;4961754;28;20042;-63
2022/05/11 11:01:59;;;;;;;8.90;2.40;;;;;;;;;;4964306;28;20073;-63
2022/05/11 11:04:50;;;;;;;9.15;2.33;;;;;;;;;;4958490;28;20033;-63
2022/05/11 11:07:21;;;;;;;8.95;2.70;;;;;;;;;;4959486;28;20038;-63
2022/05/11 11:10:18;;;;;;;6.93;2.00;;;;;;;;;;4961385;28;20075;-63
2022/05/11 11:13:17;;;;;;;13.65;2.40;;;;;;;;;;4953535;28;20031;-64
2022/05/11 11:15:44;;;;;;;9.05;2.08;;;;;;;;;;4957156;28;20024;-63
2022/05/11 11:18:16;;;;;;;13.57;2.13;;;;;;;;;;4959014;28;20038;-64
2022/05/11 11:20:47;;;;;;;10.90;2.90;;;;;;;;;;4965616;28;20154;-63
2022/05/11 11:23:30;;;;;;;5.45;2.10;;;;;;;;;;4957836;28;20440;-63
2022/05/11 11:26:04;;;;;;;7.05;2.72;;;;;;;;;;4961953;28;20091;-63
2022/05/11 11:28:40;;;;;;;8.15;2.10;;;;;;;;;;4959856;28;20042;-63
2022/05/11 11:31:09;;;;;;;9.30;2.42;;;;;;;;;;4956939;28;20027;-63
2022/05/11 11:33:39;;;;;;;11.98;2.25;;;;;;;;;;4962907;28;20632;-63
2022/05/11 11:36:05;;;;;;;12.55;2.85;;;;;;;;;;4961787;28;20419;-62
2022/05/11 11:38:36;;;;;;;10.38;2.47;;;;;;;;;;4961820;28;20129;-63
2022/05/11 11:41:22;;;;;;;13.80;2.55;;;;;;;;;;4958692;28;20031;-62
2022/05/11 11:44:00;;;;;;;16.90;2.60;;;;;;;;;;4962245;28;20042;-63
2022/05/11 11:46:35;;;;;;;5.45;1.88;;;;;;;;;;4957855;28;20566;-62
2022/05/11 11:49:19;;;;;;;11.80;2.63;;;;;;;;;;4959683;28;20524;-62
2022/05/11 11:51:52;;;;;;;5.95;2.30;;;;;;;;;;4958369;28;20037;-62
2022/05/11 11:54:34;;;;;;;9.40;2.25;;;;;;;;;;4958134;28;20059;-62
2022/05/11 11:57:02;;;;;;;7.70;2.20;;;;;;;;;;4956547;28;20062;-61
2022/05/11 11:59:30;;;;;;;11.40;2.63;;;;;;;;;;4958107;28;20515;-62
2022/05/11 12:02:17;;;;;;;14.50;2.63;;;;;;;;;;4961003;28;20083;-62
2022/05/11 12:05:23;;;;;;;10.55;2.15;;;;;;;;;;4960925;28;20031;-62
2022/05/11 12:16:57;;;;;;;5.63;2.20;;;;;;;;;;4966072;28;20061;-62
2022/05/11 12:19:30;;;;;;;9.52;2.35;;;;;;;;;;4959350;28;20042;-62
2022/05/11 12:22:13;;;;;;;13.68;2.83;;;;;;;;;;4958311;28;20082;-62
2022/05/11 12:25:00;;;;;;;9.32;2.70;;;;;;;;;;4958066;28;20036;-62
2022/05/11 12:27:32;;;;;;;12.98;2.83;;;;;;;;;;4956097;28;20046;-62
2022/05/11 12:30:05;;;;;;;8.32;2.65;;;;;;;;;;4962780;28;20098;-62
2022/05/11 12:32:32;;;;;;;7.30;2.50;;;;;;;;;;4965423;28;20029;-62
2022/05/11 12:35:26;;;;;;;9.05;2.08;;;;;;;;;;4959867;28;20031;-62
2022/05/11 12:38:08;;;;;;;9.38;2.45;;;;;;;;;;4960161;28;20113;-60
2022/05/11 12:40:50;;;;;;;11.18;2.58;;;;;;;;;;4960693;28;20110;-61
2022/05/11 12:43:24;;;;;;;9.30;2.70;;;;;;;;;;4965910;28;20061;-63
2022/05/11 12:45:52;;;;;;;7.13;2.40;;;;;;;;;;4955200;28;20023;-62
2022/05/11 12:48:54;;;;;;;7.10;2.28;;;;;;;;;;4959901;28;20038;-62
2022/05/11 12:51:40;;;;;;;;;;;;;;;;;;4957810;28;20085;-62
2022/05/11 12:54:09;;;;;;;11.93;2.22;;;;;;;;;;4960988;28;19943;-62
2022/05/11 12:56:40;;;;;;;13.85;2.60;;;;;;;;;;4965763;28;20035;-62
2022/05/11 12:59:21;;;;;;;;;;;;;;;;;;4959854;28;20031;-62
2022/05/11 13:01:47;;;;;;;9.88;2.60;;;;;;;;;;4961980;28;20291;-62
2022/05/11 13:04:21;;;;;;;8.57;2.47;;;;;;;;;;4959998;28;20058;-62
2022/05/11 13:06:50;;;;;;;13.88;2.97;;;;;;;;;;4957163;28;20043;-62
2022/05/11 13:09:37;;;;;;;8.70;2.63;;;;;;;;;;4964589;28;20108;-62
2022/05/11 13:12:05;;;;;;;12.68;2.90;;;;;;;;;;4965289;28;20041;-61
2022/05/11 13:14:38;;;;;;;14.55;2.90;;;;;;;;;;4966140;28;20054;-62
2022/05/11 13:17:07;;;;;;;9.88;2.92;;;;;;;;;;4959014;28;20117;-62
2022/05/11 13:19:32;;;;;;;10.50;2.53;;;;;;;;;;4959649;28;20033;-62
2022/05/11 13:22:12;;;;;;;8.98;2.17;;;;;;;;;;4957065;28;20114;-62
2022/05/11 13:24:50;;;;;;;7.38;2.35;;;;;;;;;;4956013;28;20031;-62
2022/05/11 13:27:33;;;;;;;12.48;2.97;;;;;;;;;;4955377;28;20035;-61
2022/05/11 13:30:13;;;;;;;11.13;2.72;;;;;;;;;;4958723;28;20635;-62
2022/05/11 13:32:51;;;;;;;8.52;2.53;;;;;;;;;;4959096;28;20043;-62
2022/05/11 13:35:37;;;;;;;11.98;3.17;;;;;;;;;;4960738;28;20481;-62
2022/05/11 13:38:02;;;;;;;10.35;3.50;;;;;;;;;;4956644;28;20089;-62
2022/05/11 13:40:38;;;;;;;14.50;3.10;;;;;;;;;;4957411;28;20472;-63
2022/05/11 13:43:44;;;;;;;19.70;3.22;;;;;;;;;;4957298;28;20031;-62
2022/05/11 13:46:13;;;;;;;16.20;2.88;;;;;;;;;;4925954;29;20723;-62
2022/05/11 13:48:42;;;;;;;10.50;2.10;;;;;;;;;;4927747;29;20408;-61
2022/05/11 13:51:19;;;;;;;11.30;2.70;;;;;;;;;;4926691;29;20082;-62
2022/05/11 13:53:50;;;;;;;11.50;2.47;;;;;;;;;;4927284;29;20115;-62
2022/05/11 13:56:16;;;;;;;6.78;2.67;;;;;;;;;;4928138;29;20071;-62
2022/05/11 13:58:46;;;;;;;13.73;2.50;;;;;;;;;;4926931;29;20055;-62
2022/05/11 14:01:15;;;;;;;15.85;3.10;;;;;;;;;;4927652;29;20134;-60
2022/05/11 14:03:53;;;;;;;14.93;2.88;;;;;;;;;;4925488;29;20040;-61
2022/05/11 14:06:31;;;;;;;12.52;2.63;;;;;;;;;;4926080;29;20231;-61
2022/05/11 14:08:58;;;;;;;8.85;2.75;;;;;;;;;;4926499;29;20047;-62
2022/05/11 14:11:24;;;;;;;11.45;2.53;;;;;;;;;;4926483;29;20039;-61
2022/05/11 14:13:50;;;;;;;11.25;2.35;;;;;;;;;;4927036;29;20056;-61
2022/05/11 14:16:30;;;;;;;10.55;3.30;;;;;;;;;;4925735;29;20063;-62
2022/05/11 14:18:57;;;;;;;12.73;2.92;;;;;;;;;;4927261;29;20047;-61
2022/05/11 14:21:23;;;;;;;13.27;2.47;;;;;;;;;;4928957;28;20043;-62
2022/05/11 14:23:48;;;;;;;7.43;2.75;;;;;;;;;;4963009;28;20019;-62
2022/05/11 14:26:14;;;;;;;6.45;2.60;;;;;;;;;;4957870;28;20507;-62
2022/05/11 14:28:39;;;;;;;8.23;2.80;;;;;;;;;;4957606;28;20070;-62
2022/05/11 14:31:08;;;;;;;14.57;2.50;;;;;;;;;;4963141;28;20049;-62
2022/05/11 14:33:34;;;;;;;14.15;2.65;;;;;;;;;;4956878;28;20486;-61
2022/05/11 14:36:00;;;;;;;9.88;2.60;;;;;;;;;;4955107;28;20090;-61
2022/05/11 14:38:26;;;;;;;8.63;2.85;;;;;;;;;;4959221;28;20044;-62
2022/05/11 14:40:52;;;;;;;5.85;2.50;;;;;;;;;;4957922;28;20112;-61
2022/05/11 14:43:17;;;;;;;8.48;2.20;;;;;;;;;;4956654;28;20042;-61
2022/05/11 14:45:47;;;;;;;11.77;2.50;;;;;;;;;;4958573;28;20050;-61
2022/05/11 14:48:21;;;;;;;11.18;3.17;;;;;;;;;;4956926;28;20045;-61
2022/05/11 14:50:47;;;;;;;9.38;3.20;;;;;;;;;;4962422;28;20035;-62
2022/05/11 14:53:13;;;;;;;10.20;3.05;;;;;;;;;;4957487;28;20075;-61
2022/05/11 14:55:39;;;;;;;8.98;2.70;;;;;;;;;;4955452;28;20023;-61
2022/05/11 15:03:34;;;;;;;15.45;2.80;;;;;;;;;;4964575;28;20428;-62
2022/05/11 15:06:00;;;;;;;13.00;3.13;;;;;;;;;;4958829;28;20031;-62
2022/05/11 15:08:26;;;;;;;11.50;2.38;;;;;;;;;;4957167;28;20055;-63
2022/05/11 15:13:36;;;;;;;7.55;2.80;;;;;;;;;;4959601;28;20026;-62
2022/05/11 15:16:02;;;;;;;9.52;2.80;;;;;;;;;;4960048;28;20058;-62
2022/05/11 15:18:29;;;;;;;16.15;2.80;;;;;;;;;;4955252;28;20043;-62
2022/05/11 15:20:55;;;;;;;16.17;2.80;;;;;;;;;;4960613;28;20028;-62
2022/05/11 15:23:21;;;;;;;11.60;2.72;;;;;;;;;;4963798;28;20542;-62
2022/05/11 15:25:48;;;;;;;8.38;2.75;;;;;;;;;;4959553;28;20039;-61
2022/05/11 15:28:14;;;;;;;13.38;2.70;;;;;;;;;;4958688;28;20031;-62
2022/05/11 15:30:42;;;;;;;14.93;2.97;;;;;;;;;;4958667;28;20031;-62
2022/05/11 15:33:19;;;;;;;12.00;2.78;;;;;;;;;;4957527;28;20070;-62
2022/05/11 15:35:46;;;;;;;6.45;2.47;;;;;;;;;;4960687;28;20028;-61
2022/05/11 15:38:13;;;;;;;18.38;2.88;;;;;;;;;;4959847;28;20043;-61
2022/05/11 15:40:39;;;;;;;8.25;3.08;;;;;;;;;;4962595;28;20082;-61
2022/05/11 15:43:07;;;;;;;11.05;3.17;;;;;;;;;;4960010;28;20110;-61
2022/05/11 15:45:33;;;;;;;8.27;2.25;;;;;;;;;;4960373;28;20027;-60
2022/05/11 15:48:00;;;;;;;16.90;3.13;;;;;;;;;;4958723;28;20082;-60
2022/05/11 15:50:26;;;;;;;9.93;2.83;;;;;;;;;;4958439;28;20082;-60
2022/05/11 15:52:54;;;;;;;10.75;2.88;;;;;;;;;;4964253;28;20031;-63
2022/05/11 15:55:23;;;;;;;8.82;2.85;;;;;;;;;;4958406;28;20483;-61